sensor_id;sensor_type;location;lat;lon;timestamp;noise_LAeq;noise_LA_min;noise_LA_max;noise_LA01;noise_LA95
69613;Laerm;56819;52.382;4.758;2022-10-26T00:00:04;50.74;39.46;61.69;;
69613;Laerm;56819;52.382;4.758;2022-10-26T00:00:14;44.50;40.16;52.98;;
69613;Laerm;56819;52.382;4.758;2022-10-26T00:00:26;42.03;38.74;47.76;;
69613;Laerm;56819;52.382;4.758;2022-10-26T00:00:36;41.41;38.11;44.73;;
69613;Laerm;56819;52.382;4.758;2022-10-26T00:00:46;43.70;40.29;46.87;;
69613;Laerm;56819;52.382;4.758;2022-10-26T00:01:04;43.66;38.98;50.13;;
69613;Laerm;56819;52.382;4.758;2022-10-26T00:01:15;44.49;39.79;54.62;;
69613;Laerm;56819;52.382;4.758;2022-10-26T00:01:25;43.83;40.64;50.35;;
69613;Laerm;56819;52.382;4.758;2022-10-26T00:01:35;44.07;41.09;47.76;;
69613;Laerm;56819;52.382;4.758;2022-10-26T00:01:46;42.78;38.89;47.70;;
69613;Laerm;56819;52.382;4.758;2022-10-26T00:01:57;42.33;38.29;45.72;;
69613;Laerm;56819;52.382;4.758;2022-10-26T00:02:07;43.62;40.48;46.83;;
69613;Laerm;56819;52.382;4.758;2022-10-26T00:02:17;41.91;38.55;45.70;;
69613;Laerm;56819;52.382;4.758;2022-10-26T00:02:27;41.32;37.49;48.18;;
69613;Laerm;56819;52.382;4.758;2022-10-26T00:02:37;43.75;37.32;53.53;;
69613;Laerm;56819;52.382;4.758;2022-10-26T00:02:48;42.38;38.16;48.88;;
69613;Laerm;56819;52.382;4.758;2022-10-26T00:02:58;42.84;37.13;54.10;;
69613;Laerm;56819;52.382;4.758;2022-10-26T00:03:08;41.50;38.60;44.07;;
69613;Laerm;56819;52.382;4.758;2022-10-26T00:03:18;43.58;39.92;47.90;;
69613;Laerm;56819;52.382;4.758;2022-10-26T00:03:29;44.63;40.87;53.50;;
69613;Laerm;56819;52.382;4.758;2022-10-26T00:03:39;45.21;41.17;50.89;;
69613;Laerm;56819;52.382;4.758;2022-10-26T00:03:50;45.92;41.82;52.63;;
69613;Laerm;56819;52.382;4.758;2022-10-26T00:04:00;46.44;42.08;51.19;;
69613;Laerm;56819;52.382;4.758;2022-10-26T00:04:11;44.63;40.89;49.49;;
69613;Laerm;56819;52.382;4.758;2022-10-26T00:04:21;44.84;39.74;52.48;;
69613;Laerm;56819;52.382;4.758;2022-10-26T00:04:31;42.26;37.30;46.58;;
69613;Laerm;56819;52.382;4.758;2022-10-26T00:04:41;41.80;38.17;49.58;;
69613;Laerm;56819;52.382;4.758;2022-10-26T00:04:52;44.16;39.77;50.86;;
69613;Laerm;56819;52.382;4.758;2022-10-26T00:05:02;46.63;42.05;53.79;;
69613;Laerm;56819;52.382;4.758;2022-10-26T00:05:12;45.24;42.06;49.25;;
69613;Laerm;56819;52.382;4.758;2022-10-26T00:05:23;46.34;41.77;52.98;;
69613;Laerm;56819;52.382;4.758;2022-10-26T00:05:33;49.39;45.42;54.78;;
69613;Laerm;56819;52.382;4.758;2022-10-26T00:05:44;46.86;43.53;50.35;;
69613;Laerm;56819;52.382;4.758;2022-10-26T00:05:54;44.20;40.32;48.48;;
69613;Laerm;56819;52.382;4.758;2022-10-26T00:06:05;46.26;41.33;51.78;;
69613;Laerm;56819;52.382;4.758;2022-10-26T00:06:17;40.04;35.99;45.19;;
69613;Laerm;56819;52.382;4.758;2022-10-26T00:06:27;37.83;35.03;40.04;;
69613;Laerm;56819;52.382;4.758;2022-10-26T00:06:37;40.38;35.51;56.08;;
69613;Laerm;56819;52.382;4.758;2022-10-26T00:06:48;40.87;36.43;48.44;;
69613;Laerm;56819;52.382;4.758;2022-10-26T00:06:58;44.90;39.72;53.20;;
69613;Laerm;56819;52.382;4.758;2022-10-26T00:07:08;42.77;38.98;50.10;;
69613;Laerm;56819;52.382;4.758;2022-10-26T00:07:19;42.57;39.40;48.78;;
69613;Laerm;56819;52.382;4.758;2022-10-26T00:07:29;44.49;39.78;48.66;;
69613;Laerm;56819;52.382;4.758;2022-10-26T00:07:39;44.81;39.81;49.38;;
69613;Laerm;56819;52.382;4.758;2022-10-26T00:07:50;43.95;39.64;49.99;;
69613;Laerm;56819;52.382;4.758;2022-10-26T00:08:00;45.60;39.40;50.96;;
69613;Laerm;56819;52.382;4.758;2022-10-26T00:08:10;41.62;38.61;45.94;;
69613;Laerm;56819;52.382;4.758;2022-10-26T00:08:21;40.41;36.29;45.70;;
69613;Laerm;56819;52.382;4.758;2022-10-26T00:08:31;42.66;38.41;48.95;;
69613;Laerm;56819;52.382;4.758;2022-10-26T00:08:41;43.38;38.28;49.48;;
69613;Laerm;56819;52.382;4.758;2022-10-26T00:08:51;41.38;36.92;46.24;;
69613;Laerm;56819;52.382;4.758;2022-10-26T00:09:02;41.33;37.63;50.11;;
69613;Laerm;56819;52.382;4.758;2022-10-26T00:09:12;41.71;37.52;50.06;;
69613;Laerm;56819;52.382;4.758;2022-10-26T00:09:22;43.19;39.41;49.47;;
69613;Laerm;56819;52.382;4.758;2022-10-26T00:09:33;43.61;39.65;47.63;;
69613;Laerm;56819;52.382;4.758;2022-10-26T00:09:43;44.05;38.67;49.39;;
69613;Laerm;56819;52.382;4.758;2022-10-26T00:09:53;43.20;39.47;49.02;;
69613;Laerm;56819;52.382;4.758;2022-10-26T00:10:04;44.14;40.16;51.63;;
69613;Laerm;56819;52.382;4.758;2022-10-26T00:10:15;45.31;39.33;56.50;;
69613;Laerm;56819;52.382;4.758;2022-10-26T00:10:25;43.03;39.24;48.60;;
69613;Laerm;56819;52.382;4.758;2022-10-26T00:10:36;43.83;40.40;46.73;;
69613;Laerm;56819;52.382;4.758;2022-10-26T00:10:46;45.12;41.37;48.46;;
69613;Laerm;56819;52.382;4.758;2022-10-26T00:10:56;45.04;42.22;48.08;;
69613;Laerm;56819;52.382;4.758;2022-10-26T00:11:07;45.80;41.88;50.70;;
69613;Laerm;56819;52.382;4.758;2022-10-26T00:11:18;46.71;43.15;52.44;;
69613;Laerm;56819;52.382;4.758;2022-10-26T00:11:28;47.35;43.35;51.88;;
69613;Laerm;56819;52.382;4.758;2022-10-26T00:11:38;48.02;43.66;55.66;;
69613;Laerm;56819;52.382;4.758;2022-10-26T00:11:49;47.23;44.43;57.56;;
69613;Laerm;56819;52.382;4.758;2022-10-26T00:11:59;48.28;42.35;59.21;;
69613;Laerm;56819;52.382;4.758;2022-10-26T00:12:09;47.70;41.37;55.17;;
69613;Laerm;56819;52.382;4.758;2022-10-26T00:12:19;46.68;39.08;57.00;;
69613;Laerm;56819;52.382;4.758;2022-10-26T00:12:29;40.69;37.62;49.71;;
69613;Laerm;56819;52.382;4.758;2022-10-26T00:12:40;40.85;37.38;46.05;;
69613;Laerm;56819;52.382;4.758;2022-10-26T00:12:50;38.61;35.98;43.14;;
69613;Laerm;56819;52.382;4.758;2022-10-26T00:13:00;38.95;35.22;47.53;;
69613;Laerm;56819;52.382;4.758;2022-10-26T00:13:11;37.93;36.08;47.01;;
69613;Laerm;56819;52.382;4.758;2022-10-26T00:13:22;44.56;35.08;57.86;;
69613;Laerm;56819;52.382;4.758;2022-10-26T00:13:32;38.22;35.82;40.54;;
69613;Laerm;56819;52.382;4.758;2022-10-26T00:13:43;40.70;37.13;44.11;;
69613;Laerm;56819;52.382;4.758;2022-10-26T00:13:53;40.52;37.19;45.77;;
69613;Laerm;56819;52.382;4.758;2022-10-26T00:14:03;42.91;39.39;46.55;;
69613;Laerm;56819;52.382;4.758;2022-10-26T00:14:14;46.12;42.28;50.24;;
69613;Laerm;56819;52.382;4.758;2022-10-26T00:14:24;45.98;41.64;53.34;;
69613;Laerm;56819;52.382;4.758;2022-10-26T00:14:35;43.09;39.79;46.50;;
69613;Laerm;56819;52.382;4.758;2022-10-26T00:14:45;40.13;36.81;44.53;;
69613;Laerm;56819;52.382;4.758;2022-10-26T00:14:55;39.19;36.33;43.00;;
69613;Laerm;56819;52.382;4.758;2022-10-26T00:15:06;37.34;34.73;40.51;;
69613;Laerm;56819;52.382;4.758;2022-10-26T00:15:16;39.65;34.47;45.10;;
69613;Laerm;56819;52.382;4.758;2022-10-26T00:15:27;41.42;37.24;48.09;;
69613;Laerm;56819;52.382;4.758;2022-10-26T00:15:40;40.73;36.47;47.23;;
69613;Laerm;56819;52.382;4.758;2022-10-26T00:15:51;39.31;36.43;43.12;;
69613;Laerm;56819;52.382;4.758;2022-10-26T00:16:15;40.88;36.74;47.64;;
69613;Laerm;56819;52.382;4.758;2022-10-26T00:16:26;43.14;37.95;53.59;;
69613;Laerm;56819;52.382;4.758;2022-10-26T00:16:36;43.43;40.50;47.14;;
69613;Laerm;56819;52.382;4.758;2022-10-26T00:16:47;44.73;40.13;50.63;;
69613;Laerm;56819;52.382;4.758;2022-10-26T00:16:57;46.40;41.47;53.55;;
69613;Laerm;56819;52.382;4.758;2022-10-26T00:17:07;46.74;41.39;51.13;;
69613;Laerm;56819;52.382;4.758;2022-10-26T00:17:17;45.98;43.36;48.95;;
69613;Laerm;56819;52.382;4.758;2022-10-26T00:17:28;45.90;42.53;48.97;;
69613;Laerm;56819;52.382;4.758;2022-10-26T00:17:38;45.12;40.45;50.86;;
69613;Laerm;56819;52.382;4.758;2022-10-26T00:17:49;44.32;40.52;47.80;;
69613;Laerm;56819;52.382;4.758;2022-10-26T00:17:59;42.88;39.57;46.64;;
69613;Laerm;56819;52.382;4.758;2022-10-26T00:18:09;40.57;37.83;43.39;;
69613;Laerm;56819;52.382;4.758;2022-10-26T00:18:20;41.85;38.61;46.63;;
69613;Laerm;56819;52.382;4.758;2022-10-26T00:18:30;44.48;41.40;48.77;;
69613;Laerm;56819;52.382;4.758;2022-10-26T00:18:40;43.79;40.81;47.56;;
69613;Laerm;56819;52.382;4.758;2022-10-26T00:18:51;43.48;40.08;47.67;;
69613;Laerm;56819;52.382;4.758;2022-10-26T00:19:01;42.46;39.69;45.74;;
69613;Laerm;56819;52.382;4.758;2022-10-26T00:19:11;46.59;42.31;53.08;;
69613;Laerm;56819;52.382;4.758;2022-10-26T00:19:21;44.79;41.50;48.63;;
69613;Laerm;56819;52.382;4.758;2022-10-26T00:19:32;42.99;38.39;47.47;;
69613;Laerm;56819;52.382;4.758;2022-10-26T00:19:42;42.26;38.38;47.42;;
69613;Laerm;56819;52.382;4.758;2022-10-26T00:19:53;41.68;38.89;44.62;;
69613;Laerm;56819;52.382;4.758;2022-10-26T00:20:04;44.52;38.23;48.44;;
69613;Laerm;56819;52.382;4.758;2022-10-26T00:20:14;48.29;43.64;53.66;;
69613;Laerm;56819;52.382;4.758;2022-10-26T00:20:24;46.48;43.16;50.14;;
69613;Laerm;56819;52.382;4.758;2022-10-26T00:20:34;45.66;41.83;47.94;;
69613;Laerm;56819;52.382;4.758;2022-10-26T00:20:45;45.03;41.74;49.63;;
69613;Laerm;56819;52.382;4.758;2022-10-26T00:20:55;45.10;41.25;47.97;;
69613;Laerm;56819;52.382;4.758;2022-10-26T00:21:11;45.38;41.94;48.59;;
69613;Laerm;56819;52.382;4.758;2022-10-26T00:21:22;45.15;42.34;49.04;;
69613;Laerm;56819;52.382;4.758;2022-10-26T00:21:32;43.88;40.63;46.51;;
69613;Laerm;56819;52.382;4.758;2022-10-26T00:21:42;43.86;39.76;49.03;;
69613;Laerm;56819;52.382;4.758;2022-10-26T00:21:53;46.90;42.07;52.14;;
69613;Laerm;56819;52.382;4.758;2022-10-26T00:22:03;46.12;42.05;54.90;;
69613;Laerm;56819;52.382;4.758;2022-10-26T00:22:13;44.61;40.27;48.98;;
69613;Laerm;56819;52.382;4.758;2022-10-26T00:22:23;44.61;41.51;48.03;;
69613;Laerm;56819;52.382;4.758;2022-10-26T00:22:33;46.85;43.92;50.17;;
69613;Laerm;56819;52.382;4.758;2022-10-26T00:22:44;48.02;44.67;51.28;;
69613;Laerm;56819;52.382;4.758;2022-10-26T00:22:54;47.00;42.72;51.95;;
69613;Laerm;56819;52.382;4.758;2022-10-26T00:23:04;44.43;41.18;47.74;;
69613;Laerm;56819;52.382;4.758;2022-10-26T00:23:14;44.29;40.23;53.95;;
69613;Laerm;56819;52.382;4.758;2022-10-26T00:23:25;43.83;40.45;47.73;;
69613;Laerm;56819;52.382;4.758;2022-10-26T00:23:35;43.84;40.19;48.26;;
69613;Laerm;56819;52.382;4.758;2022-10-26T00:23:45;43.79;40.47;47.85;;
69613;Laerm;56819;52.382;4.758;2022-10-26T00:23:57;42.93;39.79;46.19;;
69613;Laerm;56819;52.382;4.758;2022-10-26T00:24:07;43.58;39.71;47.71;;
69613;Laerm;56819;52.382;4.758;2022-10-26T00:24:17;44.70;41.62;48.65;;
69613;Laerm;56819;52.382;4.758;2022-10-26T00:24:28;43.21;40.41;47.08;;
69613;Laerm;56819;52.382;4.758;2022-10-26T00:24:38;43.79;40.04;47.73;;
69613;Laerm;56819;52.382;4.758;2022-10-26T00:24:48;42.67;39.72;45.45;;
69613;Laerm;56819;52.382;4.758;2022-10-26T00:24:58;44.82;41.68;47.99;;
69613;Laerm;56819;52.382;4.758;2022-10-26T00:25:09;44.99;41.07;48.85;;
69613;Laerm;56819;52.382;4.758;2022-10-26T00:25:19;46.99;43.97;50.11;;
69613;Laerm;56819;52.382;4.758;2022-10-26T00:25:29;46.31;42.80;50.51;;
69613;Laerm;56819;52.382;4.758;2022-10-26T00:25:39;44.65;41.81;47.50;;
69613;Laerm;56819;52.382;4.758;2022-10-26T00:25:53;46.70;43.56;49.28;;
69613;Laerm;56819;52.382;4.758;2022-10-26T00:26:03;46.27;43.22;49.07;;
69613;Laerm;56819;52.382;4.758;2022-10-26T00:26:14;45.37;41.83;49.13;;
69613;Laerm;56819;52.382;4.758;2022-10-26T00:26:24;43.21;40.61;46.58;;
69613;Laerm;56819;52.382;4.758;2022-10-26T00:26:34;41.92;38.88;44.42;;
69613;Laerm;56819;52.382;4.758;2022-10-26T00:26:45;42.85;40.34;45.52;;
69613;Laerm;56819;52.382;4.758;2022-10-26T00:26:56;41.12;38.78;44.55;;
69613;Laerm;56819;52.382;4.758;2022-10-26T00:27:06;41.25;38.49;45.31;;
69613;Laerm;56819;52.382;4.758;2022-10-26T00:27:16;40.18;37.42;44.62;;
69613;Laerm;56819;52.382;4.758;2022-10-26T00:27:27;40.37;38.22;44.44;;
69613;Laerm;56819;52.382;4.758;2022-10-26T00:27:37;41.80;37.71;46.09;;
69613;Laerm;56819;52.382;4.758;2022-10-26T00:27:47;44.26;39.76;49.96;;
69613;Laerm;56819;52.382;4.758;2022-10-26T00:27:57;41.30;37.58;49.69;;
69613;Laerm;56819;52.382;4.758;2022-10-26T00:28:07;42.33;38.80;47.64;;
69613;Laerm;56819;52.382;4.758;2022-10-26T00:28:18;43.95;38.06;51.30;;
69613;Laerm;56819;52.382;4.758;2022-10-26T00:28:28;42.59;38.61;47.06;;
69613;Laerm;56819;52.382;4.758;2022-10-26T00:28:38;42.39;38.42;45.44;;
69613;Laerm;56819;52.382;4.758;2022-10-26T00:28:51;42.73;39.28;45.89;;
69613;Laerm;56819;52.382;4.758;2022-10-26T00:29:01;41.14;37.47;45.79;;
69613;Laerm;56819;52.382;4.758;2022-10-26T00:29:11;42.94;39.59;46.45;;
69613;Laerm;56819;52.382;4.758;2022-10-26T00:29:22;43.84;40.64;46.79;;
69613;Laerm;56819;52.382;4.758;2022-10-26T00:29:32;44.15;39.94;49.46;;
69613;Laerm;56819;52.382;4.758;2022-10-26T00:29:42;43.84;40.06;47.22;;
69613;Laerm;56819;52.382;4.758;2022-10-26T00:29:52;43.71;39.74;46.52;;
69613;Laerm;56819;52.382;4.758;2022-10-26T00:30:03;47.22;39.93;59.74;;
69613;Laerm;56819;52.382;4.758;2022-10-26T00:30:14;44.16;40.49;49.61;;
69613;Laerm;56819;52.382;4.758;2022-10-26T00:30:24;42.75;38.81;47.72;;
69613;Laerm;56819;52.382;4.758;2022-10-26T00:30:37;44.69;40.43;47.73;;
69613;Laerm;56819;52.382;4.758;2022-10-26T00:30:48;44.88;39.65;49.28;;
69613;Laerm;56819;52.382;4.758;2022-10-26T00:31:08;43.11;40.44;45.97;;
69613;Laerm;56819;52.382;4.758;2022-10-26T00:31:20;44.11;39.88;53.00;;
69613;Laerm;56819;52.382;4.758;2022-10-26T00:31:30;45.67;41.56;51.30;;
69613;Laerm;56819;52.382;4.758;2022-10-26T00:31:40;45.89;41.79;51.80;;
69613;Laerm;56819;52.382;4.758;2022-10-26T00:31:51;46.09;42.01;50.70;;
69613;Laerm;56819;52.382;4.758;2022-10-26T00:32:01;45.79;42.34;51.88;;
69613;Laerm;56819;52.382;4.758;2022-10-26T00:32:11;44.28;40.27;49.60;;
69613;Laerm;56819;52.382;4.758;2022-10-26T00:32:21;45.47;42.13;50.09;;
69613;Laerm;56819;52.382;4.758;2022-10-26T00:32:32;46.18;42.79;50.70;;
69613;Laerm;56819;52.382;4.758;2022-10-26T00:32:42;47.26;42.26;51.93;;
69613;Laerm;56819;52.382;4.758;2022-10-26T00:32:52;44.66;41.04;48.86;;
69613;Laerm;56819;52.382;4.758;2022-10-26T00:33:03;43.36;39.52;48.53;;
69613;Laerm;56819;52.382;4.758;2022-10-26T00:33:13;41.56;38.07;45.74;;
69613;Laerm;56819;52.382;4.758;2022-10-26T00:33:23;42.67;39.05;47.30;;
69613;Laerm;56819;52.382;4.758;2022-10-26T00:33:34;44.93;41.28;50.62;;
69613;Laerm;56819;52.382;4.758;2022-10-26T00:33:44;46.07;41.05;53.73;;
69613;Laerm;56819;52.382;4.758;2022-10-26T00:33:55;45.28;41.95;50.81;;
69613;Laerm;56819;52.382;4.758;2022-10-26T00:34:05;44.18;39.36;47.97;;
69613;Laerm;56819;52.382;4.758;2022-10-26T00:34:16;41.18;38.93;45.54;;
69613;Laerm;56819;52.382;4.758;2022-10-26T00:34:26;42.67;37.18;46.81;;
69613;Laerm;56819;52.382;4.758;2022-10-26T00:34:36;43.07;39.43;49.40;;
69613;Laerm;56819;52.382;4.758;2022-10-26T00:34:46;41.52;38.10;44.74;;
69613;Laerm;56819;52.382;4.758;2022-10-26T00:34:56;41.10;38.59;44.96;;
69613;Laerm;56819;52.382;4.758;2022-10-26T00:35:07;42.92;38.86;48.24;;
69613;Laerm;56819;52.382;4.758;2022-10-26T00:35:17;42.53;39.58;45.38;;
69613;Laerm;56819;52.382;4.758;2022-10-26T00:35:27;43.74;39.23;48.95;;
69613;Laerm;56819;52.382;4.758;2022-10-26T00:35:38;41.75;37.61;46.43;;
69613;Laerm;56819;52.382;4.758;2022-10-26T00:35:54;40.69;38.03;44.49;;
69613;Laerm;56819;52.382;4.758;2022-10-26T00:36:05;41.73;36.70;48.51;;
69613;Laerm;56819;52.382;4.758;2022-10-26T00:36:15;41.35;37.88;45.20;;
69613;Laerm;56819;52.382;4.758;2022-10-26T00:36:26;42.34;38.64;45.60;;
69613;Laerm;56819;52.382;4.758;2022-10-26T00:36:36;41.11;37.34;45.05;;
69613;Laerm;56819;52.382;4.758;2022-10-26T00:36:47;40.70;37.71;43.81;;
69613;Laerm;56819;52.382;4.758;2022-10-26T00:36:57;40.03;37.77;42.92;;
69613;Laerm;56819;52.382;4.758;2022-10-26T00:37:07;40.46;37.82;43.65;;
69613;Laerm;56819;52.382;4.758;2022-10-26T00:37:18;40.48;37.90;43.05;;
69613;Laerm;56819;52.382;4.758;2022-10-26T00:37:28;41.61;37.80;46.00;;
69613;Laerm;56819;52.382;4.758;2022-10-26T00:37:39;43.11;38.50;47.18;;
69613;Laerm;56819;52.382;4.758;2022-10-26T00:37:53;44.37;41.36;47.24;;
69613;Laerm;56819;52.382;4.758;2022-10-26T00:38:03;44.70;40.51;48.26;;
69613;Laerm;56819;52.382;4.758;2022-10-26T00:38:13;46.81;43.40;51.37;;
69613;Laerm;56819;52.382;4.758;2022-10-26T00:38:24;46.43;42.78;49.53;;
69613;Laerm;56819;52.382;4.758;2022-10-26T00:38:34;45.08;42.52;48.19;;
69613;Laerm;56819;52.382;4.758;2022-10-26T00:38:47;44.29;40.99;46.54;;
69613;Laerm;56819;52.382;4.758;2022-10-26T00:38:58;44.12;40.33;48.74;;
69613;Laerm;56819;52.382;4.758;2022-10-26T00:39:09;45.05;42.00;49.21;;
69613;Laerm;56819;52.382;4.758;2022-10-26T00:39:21;47.08;43.10;51.94;;
69613;Laerm;56819;52.382;4.758;2022-10-26T00:39:31;45.17;41.44;48.95;;
69613;Laerm;56819;52.382;4.758;2022-10-26T00:39:42;44.14;41.27;48.32;;
69613;Laerm;56819;52.382;4.758;2022-10-26T00:39:52;43.93;41.14;46.75;;
69613;Laerm;56819;52.382;4.758;2022-10-26T00:40:02;42.98;40.08;47.08;;
69613;Laerm;56819;52.382;4.758;2022-10-26T00:40:13;44.07;41.08;47.29;;
69613;Laerm;56819;52.382;4.758;2022-10-26T00:40:26;43.80;39.92;47.19;;
69613;Laerm;56819;52.382;4.758;2022-10-26T00:40:36;41.69;38.23;45.18;;
69613;Laerm;56819;52.382;4.758;2022-10-26T00:40:47;43.09;39.79;46.17;;
69613;Laerm;56819;52.382;4.758;2022-10-26T00:40:57;44.30;39.85;48.38;;
69613;Laerm;56819;52.382;4.758;2022-10-26T00:41:10;43.52;40.69;46.32;;
69613;Laerm;56819;52.382;4.758;2022-10-26T00:41:25;42.52;38.58;45.01;;
69613;Laerm;56819;52.382;4.758;2022-10-26T00:41:35;42.29;39.80;47.10;;
69613;Laerm;56819;52.382;4.758;2022-10-26T00:41:45;43.32;39.80;46.99;;
69613;Laerm;56819;52.382;4.758;2022-10-26T00:41:56;42.02;38.87;45.86;;
69613;Laerm;56819;52.382;4.758;2022-10-26T00:42:08;41.32;37.63;44.35;;
69613;Laerm;56819;52.382;4.758;2022-10-26T00:42:20;41.51;37.81;44.54;;
69613;Laerm;56819;52.382;4.758;2022-10-26T00:42:31;44.57;40.92;47.75;;
69613;Laerm;56819;52.382;4.758;2022-10-26T00:42:41;45.36;41.32;49.87;;
69613;Laerm;56819;52.382;4.758;2022-10-26T00:42:51;45.70;42.42;50.84;;
69613;Laerm;56819;52.382;4.758;2022-10-26T00:43:01;46.08;41.95;48.88;;
69613;Laerm;56819;52.382;4.758;2022-10-26T00:43:41;44.35;38.96;48.85;;
69613;Laerm;56819;52.382;4.758;2022-10-26T00:43:51;45.23;40.37;55.91;;
69613;Laerm;56819;52.382;4.758;2022-10-26T00:44:37;40.35;37.40;44.20;;
69613;Laerm;56819;52.382;4.758;2022-10-26T00:45:18;42.70;38.90;48.35;;
69613;Laerm;56819;52.382;4.758;2022-10-26T00:45:29;43.49;37.01;49.21;;
69613;Laerm;56819;52.382;4.758;2022-10-26T00:45:39;39.75;35.66;45.20;;
69613;Laerm;56819;52.382;4.758;2022-10-26T00:45:49;39.86;36.64;43.43;;
69613;Laerm;56819;52.382;4.758;2022-10-26T00:46:02;42.45;37.80;46.43;;
69613;Laerm;56819;52.382;4.758;2022-10-26T00:46:33;43.23;40.07;47.47;;
69613;Laerm;56819;52.382;4.758;2022-10-26T00:46:44;41.12;36.34;45.93;;
69613;Laerm;56819;52.382;4.758;2022-10-26T00:46:55;38.77;36.26;41.59;;
69613;Laerm;56819;52.382;4.758;2022-10-26T00:47:05;39.25;35.64;43.88;;
69613;Laerm;56819;52.382;4.758;2022-10-26T00:47:16;41.41;36.17;52.17;;
69613;Laerm;56819;52.382;4.758;2022-10-26T00:47:35;41.60;38.18;46.24;;
69613;Laerm;56819;52.382;4.758;2022-10-26T00:47:47;41.27;36.83;47.39;;
69613;Laerm;56819;52.382;4.758;2022-10-26T00:48:04;44.10;38.60;49.20;;
69613;Laerm;56819;52.382;4.758;2022-10-26T00:48:35;42.87;39.79;49.50;;
69613;Laerm;56819;52.382;4.758;2022-10-26T00:48:51;42.62;37.70;46.72;;
69613;Laerm;56819;52.382;4.758;2022-10-26T00:49:08;41.37;37.69;45.86;;
69613;Laerm;56819;52.382;4.758;2022-10-26T00:49:20;42.19;37.12;49.39;;
69613;Laerm;56819;52.382;4.758;2022-10-26T00:49:31;41.66;36.89;45.65;;
69613;Laerm;56819;52.382;4.758;2022-10-26T00:49:41;42.49;38.73;46.69;;
69613;Laerm;56819;52.382;4.758;2022-10-26T00:49:55;42.48;39.26;45.44;;
69613;Laerm;56819;52.382;4.758;2022-10-26T00:50:12;44.98;39.73;50.17;;
69613;Laerm;56819;52.382;4.758;2022-10-26T00:51:23;43.05;37.72;51.11;;
69613;Laerm;56819;52.382;4.758;2022-10-26T00:51:36;45.22;41.25;53.02;;
69613;Laerm;56819;52.382;4.758;2022-10-26T00:51:49;46.35;41.28;49.78;;
69613;Laerm;56819;52.382;4.758;2022-10-26T00:52:00;45.37;40.79;49.53;;
69613;Laerm;56819;52.382;4.758;2022-10-26T00:52:10;44.31;40.82;48.08;;
69613;Laerm;56819;52.382;4.758;2022-10-26T00:52:21;42.85;39.94;46.19;;
69613;Laerm;56819;52.382;4.758;2022-10-26T00:52:32;43.79;40.23;50.39;;
69613;Laerm;56819;52.382;4.758;2022-10-26T00:52:43;41.95;39.18;44.26;;
69613;Laerm;56819;52.382;4.758;2022-10-26T00:52:53;43.28;40.49;47.50;;
69613;Laerm;56819;52.382;4.758;2022-10-26T00:53:06;44.37;41.06;47.39;;
69613;Laerm;56819;52.382;4.758;2022-10-26T00:53:18;46.41;43.33;49.85;;
69613;Laerm;56819;52.382;4.758;2022-10-26T00:53:28;45.21;41.79;47.73;;
69613;Laerm;56819;52.382;4.758;2022-10-26T00:53:38;43.96;41.06;46.96;;
69613;Laerm;56819;52.382;4.758;2022-10-26T00:53:49;44.89;41.82;48.99;;
69613;Laerm;56819;52.382;4.758;2022-10-26T00:54:01;45.01;41.65;49.21;;
69613;Laerm;56819;52.382;4.758;2022-10-26T00:54:12;43.90;40.49;47.19;;
69613;Laerm;56819;52.382;4.758;2022-10-26T00:54:24;43.72;38.85;48.21;;
69613;Laerm;56819;52.382;4.758;2022-10-26T00:54:34;44.85;41.89;50.26;;
69613;Laerm;56819;52.382;4.758;2022-10-26T00:54:44;44.91;41.36;50.24;;
69613;Laerm;56819;52.382;4.758;2022-10-26T00:54:55;44.22;40.86;47.29;;
69613;Laerm;56819;52.382;4.758;2022-10-26T00:55:05;44.36;40.92;48.44;;
69613;Laerm;56819;52.382;4.758;2022-10-26T00:55:16;43.70;40.12;48.57;;
69613;Laerm;56819;52.382;4.758;2022-10-26T00:55:33;45.46;40.69;50.02;;
69613;Laerm;56819;52.382;4.758;2022-10-26T00:55:45;42.12;38.78;46.75;;
69613;Laerm;56819;52.382;4.758;2022-10-26T00:55:57;41.69;37.69;46.61;;
69613;Laerm;56819;52.382;4.758;2022-10-26T00:56:07;40.83;37.70;45.43;;
69613;Laerm;56819;52.382;4.758;2022-10-26T00:56:18;42.75;39.82;46.33;;
69613;Laerm;56819;52.382;4.758;2022-10-26T00:56:28;44.00;40.85;47.54;;
69613;Laerm;56819;52.382;4.758;2022-10-26T00:56:39;47.52;43.62;49.76;;
69613;Laerm;56819;52.382;4.758;2022-10-26T00:56:50;45.57;41.56;50.34;;
69613;Laerm;56819;52.382;4.758;2022-10-26T00:57:01;44.64;41.32;48.66;;
69613;Laerm;56819;52.382;4.758;2022-10-26T00:57:11;43.34;41.01;45.96;;
69613;Laerm;56819;52.382;4.758;2022-10-26T00:57:24;44.63;40.03;49.10;;
69613;Laerm;56819;52.382;4.758;2022-10-26T00:57:35;44.68;40.73;48.15;;
69613;Laerm;56819;52.382;4.758;2022-10-26T00:57:47;41.97;38.72;46.99;;
69613;Laerm;56819;52.382;4.758;2022-10-26T00:57:58;39.01;35.24;42.16;;
69613;Laerm;56819;52.382;4.758;2022-10-26T00:58:10;37.49;34.26;44.10;;
69613;Laerm;56819;52.382;4.758;2022-10-26T00:58:20;38.00;35.39;40.69;;
69613;Laerm;56819;52.382;4.758;2022-10-26T00:58:31;38.25;35.21;43.53;;
69613;Laerm;56819;52.382;4.758;2022-10-26T00:58:43;39.35;35.54;43.37;;
69613;Laerm;56819;52.382;4.758;2022-10-26T00:58:54;38.45;35.64;41.62;;
69613;Laerm;56819;52.382;4.758;2022-10-26T00:59:05;39.86;35.44;43.21;;
69613;Laerm;56819;52.382;4.758;2022-10-26T00:59:16;41.21;37.64;48.63;;
69613;Laerm;56819;52.382;4.758;2022-10-26T00:59:27;40.91;37.04;44.32;;
69613;Laerm;56819;52.382;4.758;2022-10-26T00:59:38;42.31;38.99;45.82;;
69613;Laerm;56819;52.382;4.758;2022-10-26T00:59:48;40.53;37.69;45.00;;
69613;Laerm;56819;52.382;4.758;2022-10-26T01:00:00;41.55;37.06;45.12;;
69613;Laerm;56819;52.382;4.758;2022-10-26T01:00:10;47.13;36.78;56.79;;
69613;Laerm;56819;52.382;4.758;2022-10-26T01:00:21;38.43;35.97;42.30;;
69613;Laerm;56819;52.382;4.758;2022-10-26T01:00:31;40.33;35.29;50.45;;
69613;Laerm;56819;52.382;4.758;2022-10-26T01:00:41;40.20;36.73;44.46;;
69613;Laerm;56819;52.382;4.758;2022-10-26T01:00:52;41.89;38.62;46.49;;
69613;Laerm;56819;52.382;4.758;2022-10-26T01:01:02;43.55;40.05;46.86;;
69613;Laerm;56819;52.382;4.758;2022-10-26T01:01:12;47.81;41.68;53.61;;
69613;Laerm;56819;52.382;4.758;2022-10-26T01:01:22;49.01;44.94;53.97;;
69613;Laerm;56819;52.382;4.758;2022-10-26T01:01:33;46.87;44.42;49.97;;
69613;Laerm;56819;52.382;4.758;2022-10-26T01:01:45;47.49;43.04;51.92;;
69613;Laerm;56819;52.382;4.758;2022-10-26T01:01:56;45.52;41.16;50.18;;
69613;Laerm;56819;52.382;4.758;2022-10-26T01:02:06;45.10;40.65;49.83;;
69613;Laerm;56819;52.382;4.758;2022-10-26T01:02:17;43.45;40.33;46.38;;
69613;Laerm;56819;52.382;4.758;2022-10-26T01:02:27;42.37;38.11;45.56;;
69613;Laerm;56819;52.382;4.758;2022-10-26T01:02:37;40.23;35.85;44.61;;
69613;Laerm;56819;52.382;4.758;2022-10-26T01:02:48;39.38;36.69;42.82;;
69613;Laerm;56819;52.382;4.758;2022-10-26T01:03:00;38.74;36.29;43.43;;
69613;Laerm;56819;52.382;4.758;2022-10-26T01:03:13;42.24;36.38;52.01;;
69613;Laerm;56819;52.382;4.758;2022-10-26T01:03:24;41.67;37.69;46.84;;
69613;Laerm;56819;52.382;4.758;2022-10-26T01:03:37;41.35;37.51;46.98;;
69613;Laerm;56819;52.382;4.758;2022-10-26T01:03:47;42.26;38.36;45.53;;
69613;Laerm;56819;52.382;4.758;2022-10-26T01:03:58;40.60;36.27;43.70;;
69613;Laerm;56819;52.382;4.758;2022-10-26T01:04:09;39.01;35.59;42.11;;